Time;durP1;ratioP1;P1;durP2;ratioP2;P2;SDS_P1;SDS_P2;PMS_P1;PMS_P2;Temp;Humidity;BMP_temperature;BMP_pressure;BME280_temperature;BME280_humidity;BME280_pressure;Samples;Min_cycle;Max_cycle;Signal;HPM_P1;HPM_P2
2021/08/23 00:00:34;;;;;;;4.03;2.90;;;14.30;99.90;;;;;;4993099;28;20033;-80
2021/08/23 00:02:59;;;;;;;3.50;2.67;;;14.20;99.90;;;;;;4997807;28;20052;-80
2021/08/23 00:05:25;;;;;;;3.85;2.47;;;14.20;99.90;;;;;;5011337;28;20041;-80
2021/08/23 00:07:51;;;;;;;3.80;2.53;;;14.20;99.90;;;;;;5009763;28;20035;-81
2021/08/23 00:10:16;;;;;;;3.40;2.53;;;14.20;99.90;;;;;;5031440;28;20075;-81
2021/08/23 00:12:42;;;;;;;4.75;3.25;;;14.20;99.90;;;;;;5005600;28;20030;-80
2021/08/23 00:15:09;;;;;;;3.92;2.78;;;14.20;99.90;;;;;;4998509;28;20116;-81
2021/08/23 00:17:35;;;;;;;5.57;2.65;;;14.20;99.90;;;;;;5014353;28;20482;-80
2021/08/23 00:20:03;;;;;;;3.67;2.70;;;14.30;99.90;;;;;;5002403;28;20026;-81
2021/08/23 00:22:32;;;;;;;3.58;2.40;;;14.30;99.90;;;;;;4989460;28;20486;-81
2021/08/23 00:25:00;;;;;;;4.00;2.75;;;14.30;99.90;;;;;;5023865;28;20537;-80
2021/08/23 00:27:26;;;;;;;5.40;3.05;;;14.40;99.90;;;;;;5039581;28;20018;-81
2021/08/23 00:29:52;;;;;;;4.70;2.97;;;14.40;99.90;;;;;;5008539;28;20026;-81
2021/08/23 00:32:18;;;;;;;4.22;3.08;;;14.40;99.90;;;;;;5008346;28;20044;-81
2021/08/23 00:34:43;;;;;;;3.88;2.90;;;14.40;99.90;;;;;;5000992;28;20112;-80
2021/08/23 00:37:09;;;;;;;5.80;3.17;;;14.40;99.90;;;;;;5023440;28;20119;-81
2021/08/23 00:39:36;;;;;;;3.47;2.83;;;14.40;99.90;;;;;;5009804;28;20096;-80
2021/08/23 00:42:03;;;;;;;3.17;2.58;;;14.40;99.90;;;;;;5006399;28;20036;-80
2021/08/23 00:44:31;;;;;;;3.30;3.00;;;14.40;99.90;;;;;;5028565;28;20033;-81
2021/08/23 00:46:58;;;;;;;4.30;2.80;;;14.50;99.90;;;;;;5025360;28;20041;-81
2021/08/23 00:49:24;;;;;;;4.68;3.28;;;14.40;99.90;;;;;;5010711;28;20116;-80
2021/08/23 00:51:51;;;;;;;4.45;2.50;;;14.40;99.90;;;;;;5025779;28;20505;-80
2021/08/23 00:54:17;;;;;;;3.88;2.63;;;14.40;99.90;;;;;;5016974;28;20089;-81
2021/08/23 00:56:43;;;;;;;8.10;2.50;;;14.40;99.90;;;;;;4994499;28;20410;-80
2021/08/23 00:59:09;;;;;;;3.97;2.67;;;14.50;99.90;;;;;;4994059;28;20885;-80
2021/08/23 01:01:53;;;;;;;3.90;2.20;;;14.50;99.90;;;;;;5009281;28;20037;-80
2021/08/23 01:04:35;;;;;;;2.72;2.25;;;14.40;99.90;;;;;;5015057;28;20569;-81
2021/08/23 01:07:03;;;;;;;3.58;1.98;;;14.50;99.90;;;;;;5024195;28;20025;-80
2021/08/23 01:09:32;;;;;;;6.03;2.85;;;14.50;99.90;;;;;;5014224;28;20026;-81
2021/08/23 01:12:02;;;;;;;3.40;2.97;;;14.50;99.90;;;;;;5026419;28;20036;-81
2021/08/23 01:14:28;;;;;;;4.50;3.35;;;14.50;99.90;;;;;;5038332;28;20055;-81
2021/08/23 01:16:54;;;;;;;3.90;3.00;;;14.50;99.90;;;;;;5013465;28;20021;-80
2021/08/23 01:19:22;;;;;;;4.10;3.00;;;14.50;99.90;;;;;;5004752;28;20033;-81
2021/08/23 01:21:51;;;;;;;10.65;2.42;;;14.50;99.90;;;;;;5017294;28;20128;-82
2021/08/23 01:24:17;;;;;;;3.17;2.00;;;14.50;99.90;;;;;;5011836;28;20037;-80
2021/08/23 01:26:46;;;;;;;3.00;2.33;;;14.50;99.90;;;;;;5034688;28;20044;-81
2021/08/23 01:29:39;;;;;;;4.57;2.20;;;14.50;99.90;;;;;;5014694;28;20037;-81
2021/08/23 01:32:10;;;;;;;3.85;2.70;;;14.50;99.90;;;;;;5019019;28;20048;-81
2021/08/23 01:34:37;;;;;;;3.22;1.90;;;14.50;99.90;;;;;;5034176;28;20268;-82
2021/08/23 01:37:04;;;;;;;2.95;2.20;;;14.50;99.90;;;;;;5026840;28;20033;-82
2021/08/23 01:39:32;;;;;;;2.83;2.33;;;14.40;99.90;;;;;;5022018;28;20534;-82
2021/08/23 01:41:59;;;;;;;4.57;2.20;;;14.40;99.90;;;;;;5015702;28;20025;-82
2021/08/23 01:44:25;;;;;;;2.53;2.25;;;14.40;99.90;;;;;;5010688;28;20090;-82
2021/08/23 01:46:50;;;;;;;4.35;3.10;;;14.30;99.90;;;;;;5018491;28;20043;-82
2021/08/23 01:49:16;;;;;;;2.72;2.45;;;14.30;99.90;;;;;;5019031;28;20045;-83
2021/08/23 01:51:42;;;;;;;2.60;2.35;;;14.30;99.90;;;;;;5019667;28;20029;-82
2021/08/23 01:54:08;;;;;;;3.10;2.25;;;14.30;99.90;;;;;;5006769;28;20037;-82
2021/08/23 01:56:33;;;;;;;5.10;2.97;;;14.30;99.90;;;;;;5029236;28;20387;-81
2021/08/23 01:59:00;;;;;;;4.00;3.10;;;14.30;99.90;;;;;;4999483;28;20112;-82
2021/08/23 02:01:28;;;;;;;3.80;2.80;;;14.20;99.90;;;;;;5011418;28;20296;-82
2021/08/23 02:03:53;;;;;;;3.70;3.25;;;14.20;99.90;;;;;;4997149;28;20034;-80
2021/08/23 02:06:19;;;;;;;6.57;3.40;;;14.20;99.90;;;;;;5012919;28;20108;-81
2021/08/23 02:08:45;;;;;;;4.68;3.05;;;14.20;99.90;;;;;;5021415;28;20480;-80
2021/08/23 02:11:11;;;;;;;4.88;3.00;;;14.20;99.90;;;;;;5034348;28;20037;-80
2021/08/23 02:13:37;;;;;;;4.82;3.47;;;14.20;99.90;;;;;;5015371;28;20033;-81
2021/08/23 02:16:03;;;;;;;4.30;2.90;;;14.20;99.90;;;;;;5004794;28;20381;-81
2021/08/23 02:18:28;;;;;;;5.00;3.10;;;14.20;99.90;;;;;;5012599;28;20490;-81
2021/08/23 02:20:54;;;;;;;5.35;2.95;;;14.30;99.90;;;;;;5023511;28;20033;-81
2021/08/23 02:23:20;;;;;;;4.40;3.22;;;14.30;99.90;;;;;;5009686;28;20042;-81
2021/08/23 02:25:46;;;;;;;7.20;3.63;;;14.30;99.90;;;;;;5037760;28;20025;-81
2021/08/23 02:28:12;;;;;;;4.07;3.28;;;14.30;99.90;;;;;;4997859;28;20045;-82
2021/08/23 02:30:39;;;;;;;5.75;3.08;;;14.30;99.90;;;;;;5037938;28;20021;-81
2021/08/23 02:33:05;;;;;;;3.92;3.15;;;14.30;99.90;;;;;;5015162;28;20418;-81
2021/08/23 02:35:31;;;;;;;3.20;2.80;;;14.40;99.90;;;;;;5007870;28;20021;-80
2021/08/23 02:37:57;;;;;;;3.20;2.70;;;14.40;99.90;;;;;;5030000;28;20049;-81
2021/08/23 02:40:23;;;;;;;7.15;2.60;;;14.30;99.90;;;;;;5004840;28;20031;-82
2021/08/23 02:42:48;;;;;;;3.92;2.80;;;14.40;99.90;;;;;;5013113;28;20029;-81
2021/08/23 02:45:14;;;;;;;7.18;2.40;;;14.30;99.90;;;;;;4981299;28;20410;-81
2021/08/23 02:47:40;;;;;;;5.63;2.50;;;14.40;99.90;;;;;;5013182;28;20033;-81
2021/08/23 02:50:08;;;;;;;3.83;2.58;;;14.40;99.90;;;;;;5011744;28;20041;-81
2021/08/23 02:52:36;;;;;;;2.90;2.50;;;14.40;99.90;;;;;;5005518;28;20113;-81
2021/08/23 02:55:03;;;;;;;3.97;2.95;;;14.40;99.90;;;;;;5006900;28;20025;-81
2021/08/23 02:57:29;;;;;;;4.38;3.00;;;14.40;99.90;;;;;;5010350;28;20036;-81
2021/08/23 02:59:54;;;;;;;10.07;3.15;;;14.40;99.90;;;;;;5008854;28;20026;-80
2021/08/23 03:02:20;;;;;;;4.53;2.60;;;14.40;99.90;;;;;;5015269;28;20060;-80
2021/08/23 03:04:46;;;;;;;5.00;2.75;;;14.40;99.90;;;;;;5009255;28;20044;-80
2021/08/23 03:07:11;;;;;;;10.98;2.67;;;14.40;99.90;;;;;;5023739;28;20518;-81
2021/08/23 03:09:37;;;;;;;17.67;3.13;;;14.40;99.90;;;;;;5002218;28;20533;-80
2021/08/23 03:12:03;;;;;;;3.55;2.00;;;14.50;99.90;;;;;;4994096;28;20029;-81
2021/08/23 03:14:29;;;;;;;9.98;2.17;;;14.50;99.90;;;;;;5015430;28;20128;-82
2021/08/23 03:16:54;;;;;;;18.77;3.25;;;14.50;99.90;;;;;;4985619;28;20129;-80
2021/08/23 03:19:20;;;;;;;9.43;3.50;;;14.50;99.90;;;;;;5013214;28;20029;-81
2021/08/23 03:21:46;;;;;;;4.10;3.55;;;14.40;99.90;;;;;;5013412;28;20494;-80
2021/08/23 03:24:11;;;;;;;4.78;3.38;;;14.40;99.90;;;;;;4998810;28;20033;-81
2021/08/23 03:26:39;;;;;;;23.75;3.35;;;14.40;99.90;;;;;;5010567;28;20803;-81
2021/08/23 03:29:05;;;;;;;6.65;3.70;;;14.40;99.90;;;;;;5011601;28;20041;-81
2021/08/23 03:31:31;;;;;;;4.07;3.65;;;14.30;99.90;;;;;;5015823;28;20141;-81
2021/08/23 03:33:56;;;;;;;11.77;3.60;;;14.40;99.90;;;;;;4989493;28;20120;-82
2021/08/23 03:36:22;;;;;;;7.35;3.65;;;14.30;99.90;;;;;;5013141;28;20167;-81
2021/08/23 03:38:48;;;;;;;7.25;4.00;;;14.30;99.90;;;;;;4999836;28;20452;-80
2021/08/23 03:41:17;;;;;;;6.55;3.92;;;14.30;99.90;;;;;;4998605;28;20039;-81
2021/08/23 03:43:43;;;;;;;14.10;4.25;;;14.30;99.90;;;;;;5000046;28;20035;-82
2021/08/23 03:46:09;;;;;;;6.90;4.00;;;14.30;99.90;;;;;;5006324;28;20040;-82
2021/08/23 03:48:34;;;;;;;6.28;4.00;;;14.30;99.90;;;;;;5015136;28;20025;-80
2021/08/23 03:51:00;;;;;;;5.57;4.30;;;14.30;99.90;;;;;;5004070;28;20111;-81
2021/08/23 03:53:26;;;;;;;6.38;3.67;;;14.30;99.90;;;;;;4988899;28;20040;-81
2021/08/23 03:55:51;;;;;;;4.47;3.58;;;14.30;99.90;;;;;;4987325;28;20030;-82
2021/08/23 03:58:18;;;;;;;6.90;4.43;;;14.30;99.90;;;;;;5005315;28;20025;-81
2021/08/23 04:00:44;;;;;;;7.03;4.63;;;14.20;99.90;;;;;;5026581;28;20060;-81
2021/08/23 04:03:10;;;;;;;5.05;4.03;;;14.20;99.90;;;;;;5029899;28;20033;-82
2021/08/23 04:05:36;;;;;;;7.28;4.40;;;14.20;99.90;;;;;;5007088;28;20044;-81
2021/08/23 04:08:01;;;;;;;6.45;4.30;;;14.20;99.90;;;;;;5007451;28;20484;-81
2021/08/23 04:10:27;;;;;;;6.53;5.13;;;14.20;99.90;;;;;;5010662;28;20017;-80
2021/08/23 04:12:53;;;;;;;7.25;4.80;;;14.10;99.90;;;;;;5014851;28;20136;-81
2021/08/23 04:15:18;;;;;;;10.95;4.93;;;14.20;99.90;;;;;;4998090;28;20057;-81
2021/08/23 04:17:44;;;;;;;5.10;3.58;;;14.20;99.90;;;;;;5005676;28;20531;-81
2021/08/23 04:20:12;;;;;;;11.50;3.92;;;14.20;99.90;;;;;;5009775;28;20445;-80
2021/08/23 04:22:38;;;;;;;6.50;3.70;;;14.20;99.90;;;;;;5009179;28;20112;-80
2021/08/23 04:25:04;;;;;;;23.52;3.50;;;14.20;99.90;;;;;;5008678;28;20025;-81
2021/08/23 04:27:30;;;;;;;6.40;2.85;;;14.20;99.90;;;;;;4973165;28;20361;-80
2021/08/23 04:29:55;;;;;;;3.60;3.30;;;14.20;99.90;;;;;;4995264;28;20087;-81
2021/08/23 04:32:21;;;;;;;26.02;3.53;;;14.20;99.90;;;;;;4993408;28;20522;-81
2021/08/23 04:34:47;;;;;;;13.45;3.20;;;14.30;99.90;;;;;;4997121;28;20033;-81
2021/08/23 04:37:12;;;;;;;9.23;3.35;;;14.30;99.90;;;;;;5001442;28;20104;-81
2021/08/23 04:39:38;;;;;;;16.70;3.85;;;14.30;99.90;;;;;;4999798;28;20045;-81
2021/08/23 04:42:04;;;;;;;4.78;3.28;;;14.30;99.90;;;;;;5013888;28;20029;-80
2021/08/23 04:44:29;;;;;;;5.20;3.92;;;14.30;99.90;;;;;;5000740;28;21683;-81
2021/08/23 04:46:55;;;;;;;4.90;3.90;;;14.30;99.90;;;;;;5010609;28;20056;-81
2021/08/23 04:49:21;;;;;;;7.35;4.70;;;14.20;99.90;;;;;;5002227;28;20134;-82
2021/08/23 04:51:47;;;;;;;6.90;4.78;;;14.30;99.90;;;;;;4986426;28;20128;-80
2021/08/23 04:54:12;;;;;;;5.88;4.35;;;14.30;99.90;;;;;;5041154;28;20159;-81
2021/08/23 04:56:38;;;;;;;5.90;4.43;;;14.30;99.90;;;;;;5024585;28;20480;-81
2021/08/23 04:59:04;;;;;;;7.70;4.40;;;14.30;99.90;;;;;;5026366;28;20033;-81
2021/08/23 05:01:29;;;;;;;6.22;4.85;;;14.30;99.90;;;;;;5011358;28;20078;-81
2021/08/23 05:03:55;;;;;;;9.20;4.07;;;14.30;99.90;;;;;;5003910;28;20029;-81
2021/08/23 05:06:21;;;;;;;6.10;4.45;;;14.30;99.90;;;;;;4998380;28;20490;-81
2021/08/23 05:08:47;;;;;;;8.88;4.60;;;14.30;99.90;;;;;;5010894;28;20037;-81
2021/08/23 05:11:13;;;;;;;7.32;4.97;;;14.30;99.90;;;;;;5000025;28;20381;-81
2021/08/23 05:13:38;;;;;;;8.20;5.05;;;14.30;99.90;;;;;;5020008;28;20049;-81
2021/08/23 05:16:04;;;;;;;9.48;4.85;;;14.30;99.90;;;;;;5019873;28;20033;-81
2021/08/23 05:18:30;;;;;;;5.45;4.15;;;14.30;99.90;;;;;;5015459;28;20025;-81
2021/08/23 05:20:58;;;;;;;7.03;4.75;;;14.30;99.90;;;;;;5011922;28;20490;-81
2021/08/23 05:23:24;;;;;;;10.52;5.97;;;14.30;99.90;;;;;;5023219;28;20057;-81
2021/08/23 05:25:49;;;;;;;8.23;5.28;;;14.30;99.90;;;;;;5009476;28;20294;-81
2021/08/23 05:28:15;;;;;;;5.82;4.43;;;14.30;99.90;;;;;;5029492;28;20044;-81
2021/08/23 05:30:41;;;;;;;8.70;5.68;;;14.30;99.90;;;;;;5015140;28;20039;-82
2021/08/23 05:33:06;;;;;;;10.30;5.30;;;14.30;99.90;;;;;;5000003;28;20033;-81
2021/08/23 05:35:32;;;;;;;7.63;5.03;;;14.40;99.90;;;;;;5012076;28;20479;-81
2021/08/23 05:37:58;;;;;;;8.57;5.40;;;14.30;99.90;;;;;;5021209;28;20035;-82
2021/08/23 05:40:24;;;;;;;7.40;5.15;;;14.30;99.90;;;;;;5001499;28;20074;-81
2021/08/23 05:42:50;;;;;;;9.60;5.95;;;14.40;99.90;;;;;;5015388;28;20384;-81
2021/08/23 05:45:17;;;;;;;14.45;6.13;;;14.40;99.90;;;;;;5038493;23;20529;-81
2021/08/23 05:47:43;;;;;;;11.27;6.50;;;14.40;99.90;;;;;;5014435;28;20113;-82
2021/08/23 05:50:09;;;;;;;9.57;5.75;;;14.40;99.90;;;;;;5028879;28;20117;-82
2021/08/23 05:52:35;;;;;;;9.95;6.47;;;14.50;99.90;;;;;;5010799;28;20063;-81
2021/08/23 05:55:00;;;;;;;10.15;6.40;;;14.40;99.90;;;;;;5003459;28;20029;-81
2021/08/23 05:57:27;;;;;;;13.45;7.40;;;14.50;99.90;;;;;;5007631;28;20029;-81
2021/08/23 05:59:56;;;;;;;10.45;6.32;;;14.50;99.90;;;;;;5020469;28;20026;-81
2021/08/23 06:02:21;;;;;;;23.73;5.60;;;14.50;99.90;;;;;;4970780;28;20080;-81
2021/08/23 06:04:47;;;;;;;9.52;5.65;;;14.50;99.90;;;;;;5010425;28;20108;-81
2021/08/23 06:07:14;;;;;;;13.57;7.13;;;14.50;99.90;;;;;;4979820;28;20052;-81
2021/08/23 06:09:40;;;;;;;10.15;6.38;;;14.60;99.90;;;;;;4998897;28;20487;-81
2021/08/23 06:12:07;;;;;;;8.90;5.70;;;14.60;99.90;;;;;;5015266;28;20124;-81
2021/08/23 06:14:33;;;;;;;10.45;6.60;;;14.60;99.90;;;;;;5003833;28;20551;-81
2021/08/23 06:16:59;;;;;;;9.10;5.63;;;14.60;99.90;;;;;;5024100;28;20108;-81
2021/08/23 06:19:24;;;;;;;11.10;5.47;;;14.60;99.90;;;;;;4995472;28;20778;-81
2021/08/23 06:21:50;;;;;;;8.57;5.75;;;14.60;99.90;;;;;;5031338;28;20044;-81
2021/08/23 06:24:16;;;;;;;6.53;5.00;;;14.60;99.90;;;;;;4981401;28;20137;-82
2021/08/23 06:26:42;;;;;;;8.50;5.85;;;14.60;99.90;;;;;;5010532;28;20036;-81
2021/08/23 06:29:08;;;;;;;14.20;6.35;;;14.60;99.90;;;;;;5011600;28;20029;-81
2021/08/23 06:31:35;;;;;;;9.25;5.22;;;14.60;99.90;;;;;;5011061;28;20042;-81
2021/08/23 06:34:02;;;;;;;10.65;5.78;;;14.60;99.90;;;;;;5025772;28;20038;-81
2021/08/23 06:36:28;;;;;;;8.07;4.93;;;14.60;99.90;;;;;;4996008;28;20431;-82
2021/08/23 06:38:53;;;;;;;7.45;5.00;;;14.70;99.90;;;;;;5022291;28;20113;-81
2021/08/23 06:41:21;;;;;;;10.52;4.75;;;14.60;99.90;;;;;;4983898;28;20534;-81
2021/08/23 06:43:47;;;;;;;8.05;4.80;;;14.60;99.90;;;;;;5019018;28;20075;-81
2021/08/23 06:46:13;;;;;;;11.82;5.13;;;14.70;99.90;;;;;;5022614;28;20037;-82
2021/08/23 06:48:39;;;;;;;8.98;5.13;;;14.60;99.90;;;;;;4998155;28;20041;-82
2021/08/23 06:51:05;;;;;;;8.55;5.50;;;14.70;99.90;;;;;;4992104;28;20041;-81
2021/08/23 06:53:30;;;;;;;9.05;5.70;;;14.70;99.90;;;;;;5010587;28;20025;-82
2021/08/23 06:55:56;;;;;;;8.10;5.38;;;14.70;99.90;;;;;;5013751;28;20033;-82
2021/08/23 06:58:22;;;;;;;8.43;5.50;;;14.70;99.90;;;;;;5007306;28;20029;-82
2021/08/23 07:00:47;;;;;;;9.15;5.20;;;14.70;99.90;;;;;;4998838;28;20083;-82
2021/08/23 07:03:13;;;;;;;7.55;5.15;;;14.70;99.90;;;;;;5032297;28;20037;-82
2021/08/23 07:05:39;;;;;;;5.90;4.50;;;14.70;99.90;;;;;;4997002;28;20124;-82
2021/08/23 07:08:05;;;;;;;8.55;3.92;;;14.70;99.90;;;;;;4996585;28;20061;-82
2021/08/23 07:10:30;;;;;;;6.25;4.30;;;14.70;99.90;;;;;;4979113;28;20029;-82
2021/08/23 07:12:56;;;;;;;6.05;4.38;;;14.70;99.90;;;;;;5003237;28;20037;-82
2021/08/23 07:15:22;;;;;;;6.22;4.20;;;14.70;99.90;;;;;;5010796;28;20136;-82
2021/08/23 07:17:47;;;;;;;7.93;5.25;;;14.70;99.90;;;;;;5014549;28;20018;-82
2021/08/23 07:20:13;;;;;;;6.68;4.47;;;14.70;99.90;;;;;;4999706;28;20038;-82
2021/08/23 07:22:39;;;;;;;7.20;4.72;;;14.70;99.90;;;;;;5006311;28;20034;-82
2021/08/23 07:25:06;;;;;;;13.85;4.30;;;14.60;99.90;;;;;;5018370;28;20030;-81
2021/08/23 07:27:32;;;;;;;6.30;4.38;;;14.60;99.90;;;;;;5020458;28;20080;-81
2021/08/23 07:29:59;;;;;;;9.45;5.22;;;14.60;99.90;;;;;;5009730;28;20030;-81
2021/08/23 07:32:25;;;;;;;7.35;4.97;;;14.60;99.90;;;;;;5020919;28;20047;-81
2021/08/23 07:34:51;;;;;;;6.60;4.20;;;14.60;99.90;;;;;;5013416;28;20029;-81
2021/08/23 07:37:17;;;;;;;14.48;4.63;;;14.50;99.90;;;;;;5022913;28;20060;-81
2021/08/23 07:39:45;;;;;;;7.43;4.82;;;14.60;99.90;;;;;;5003819;28;20619;-81
2021/08/23 07:42:11;;;;;;;5.75;4.57;;;14.60;99.90;;;;;;5016224;28;20022;-81
2021/08/23 07:44:37;;;;;;;8.20;5.07;;;14.70;99.90;;;;;;5011432;28;20030;-81
2021/08/23 07:47:03;;;;;;;7.15;5.05;;;14.60;99.90;;;;;;5005273;28;20033;-81
2021/08/23 07:49:28;;;;;;;7.60;4.40;;;14.60;99.90;;;;;;5018117;28;20561;-81
2021/08/23 07:51:54;;;;;;;7.57;4.00;;;14.60;99.90;;;;;;4992734;28;20057;-81
2021/08/23 07:54:20;;;;;;;13.48;4.60;;;14.50;99.90;;;;;;4996106;28;20060;-81
2021/08/23 07:56:45;;;;;;;8.82;4.63;;;14.50;99.90;;;;;;4992481;28;20427;-81
2021/08/23 07:59:12;;;;;;;8.02;5.03;;;14.50;99.90;;;;;;4989325;28;20523;-80
2021/08/23 08:01:37;;;;;;;7.47;4.68;;;14.60;99.90;;;;;;5004634;28;20040;-81
2021/08/23 08:04:03;;;;;;;9.73;5.70;;;14.60;99.90;;;;;;5002029;28;20633;-81
2021/08/23 08:06:29;;;;;;;9.07;6.05;;;14.60;99.90;;;;;;4986252;28;20778;-80
2021/08/23 08:08:55;;;;;;;11.45;6.47;;;14.50;99.90;;;;;;5008933;28;20041;-80
2021/08/23 08:11:20;;;;;;;7.53;4.78;;;14.50;99.90;;;;;;4992792;28;20197;-81
2021/08/23 08:13:46;;;;;;;11.90;5.60;;;14.50;99.90;;;;;;5008159;28;20045;-81
2021/08/23 08:16:12;;;;;;;27.40;5.22;;;14.50;99.90;;;;;;5022190;28;20110;-82
2021/08/23 08:18:38;;;;;;;8.15;5.30;;;14.50;99.90;;;;;;5018852;28;20022;-81
2021/08/23 08:21:04;;;;;;;8.35;5.70;;;14.50;99.90;;;;;;5018980;28;20316;-80
2021/08/23 08:23:30;;;;;;;13.85;6.35;;;14.50;99.90;;;;;;4989116;28;20037;-81
2021/08/23 08:25:56;;;;;;;9.95;4.63;;;14.50;99.90;;;;;;4999765;28;20100;-80
2021/08/23 08:28:22;;;;;;;11.55;5.60;;;14.50;99.90;;;;;;4988587;28;20041;-80
2021/08/23 08:30:47;;;;;;;7.72;5.18;;;14.50;99.90;;;;;;5000761;28;20064;-81
2021/08/23 08:33:15;;;;;;;10.77;6.00;;;14.50;99.90;;;;;;5024107;28;20044;-81
2021/08/23 08:35:41;;;;;;;8.57;4.55;;;14.50;99.90;;;;;;5004147;28;20033;-80
2021/08/23 08:38:07;;;;;;;8.20;4.60;;;14.50;99.90;;;;;;5010861;28;20033;-81
2021/08/23 08:40:32;;;;;;;7.95;5.00;;;14.50;99.90;;;;;;5017965;28;20029;-82
2021/08/23 08:42:58;;;;;;;8.55;5.20;;;14.50;99.90;;;;;;5026151;28;20666;-81
2021/08/23 08:45:27;;;;;;;12.05;4.65;;;14.60;99.90;;;;;;5006508;28;20139;-81
2021/08/23 08:47:55;;;;;;;8.57;5.50;;;14.60;99.90;;;;;;4983807;28;20034;-81
2021/08/23 08:50:23;;;;;;;8.30;5.10;;;14.60;99.90;;;;;;5025365;28;20030;-81
2021/08/23 08:52:49;;;;;;;6.80;4.70;;;14.60;99.90;;;;;;5024318;28;20033;-81
2021/08/23 08:55:16;;;;;;;6.88;4.32;;;14.70;99.90;;;;;;4992708;28;20065;-81
2021/08/23 08:57:42;;;;;;;6.95;4.72;;;14.70;99.90;;;;;;4994811;28;20586;-81
2021/08/23 09:00:09;;;;;;;5.57;4.20;;;14.80;99.90;;;;;;5012762;28;20030;-82
2021/08/23 09:02:35;;;;;;;5.18;4.20;;;14.90;99.90;;;;;;5008745;28;20030;-81
2021/08/23 09:05:15;;;;;;;6.43;4.47;;;15.00;99.90;;;;;;5000475;28;20037;-81
2021/08/23 09:07:40;;;;;;;5.72;3.72;;;15.10;99.90;;;;;;5001361;28;20062;-81
2021/08/23 09:10:21;;;;;;;7.55;4.80;;;15.20;99.90;;;;;;5022059;28;20110;-80
2021/08/23 09:13:02;;;;;;;12.38;5.03;;;15.20;99.90;;;;;;5014098;28;20550;-81
2021/08/23 09:15:29;;;;;;;6.47;4.90;;;15.30;99.90;;;;;;5018532;28;20026;-81
2021/08/23 09:18:07;;;;;;;6.85;4.82;;;15.40;99.90;;;;;;4998387;28;20026;-82
2021/08/23 09:20:34;;;;;;;6.15;4.65;;;15.50;99.90;;;;;;5017737;28;20176;-80
2021/08/23 09:23:13;;;;;;;13.25;6.32;;;15.50;99.90;;;;;;5024235;28;20028;-81
2021/08/23 09:25:41;;;;;;;6.35;4.53;;;15.60;99.90;;;;;;5007000;28;20033;-81
2021/08/23 09:28:09;;;;;;;7.70;5.47;;;15.70;99.90;;;;;;4998675;28;20040;-81
2021/08/23 09:30:35;;;;;;;12.10;5.88;;;15.80;99.90;;;;;;4991798;28;20113;-82
2021/08/23 09:33:03;;;;;;;9.15;5.57;;;15.90;99.90;;;;;;5011262;28;20025;-82
2021/08/23 09:35:35;;;;;;;10.05;5.90;;;16.00;99.90;;;;;;5011906;28;20025;-81
2021/08/23 09:38:12;;;;;;;7.43;5.70;;;16.00;99.90;;;;;;5000471;28;20034;-80
2021/08/23 09:40:37;;;;;;;7.78;5.57;;;16.10;99.90;;;;;;5026661;28;20402;-81
2021/08/23 09:43:13;;;;;;;7.40;5.25;;;16.10;99.90;;;;;;5005242;28;20045;-81
2021/08/23 09:45:49;;;;;;;7.88;6.22;;;16.20;99.90;;;;;;5021073;28;20487;-81
2021/08/23 09:48:16;;;;;;;7.35;5.50;;;16.20;99.90;;;;;;5005452;28;20048;-81
2021/08/23 09:50:44;;;;;;;10.35;6.45;;;16.20;99.90;;;;;;5007481;28;20120;-81
2021/08/23 09:53:12;;;;;;;9.20;6.68;;;16.20;99.90;;;;;;5012324;28;20124;-82
2021/08/23 09:55:40;;;;;;;8.88;6.10;;;16.20;99.90;;;;;;5016200;28;20026;-81
2021/08/23 09:58:09;;;;;;;6.75;5.07;;;16.20;99.90;;;;;;4990609;28;20072;-81
2021/08/23 10:00:39;;;;;;;6.28;5.28;;;16.10;99.90;;;;;;5015010;28;20040;-81
2021/08/23 10:03:13;;;;;;;7.97;5.70;;;16.10;99.90;;;;;;5028967;28;20029;-82
2021/08/23 10:05:45;;;;;;;10.82;7.28;;;16.00;99.90;;;;;;5011482;28;20033;-81
2021/08/23 10:08:17;;;;;;;11.07;6.22;;;16.00;99.90;;;;;;5014645;28;20436;-82
2021/08/23 10:10:44;;;;;;;9.60;5.95;;;16.00;99.90;;;;;;5003834;28;20077;-81
2021/08/23 10:13:10;;;;;;;10.27;7.03;;;16.00;99.90;;;;;;5020770;28;20037;-81
2021/08/23 10:15:39;;;;;;;9.73;6.53;;;16.00;99.90;;;;;;5023711;28;20101;-81
2021/08/23 10:18:06;;;;;;;9.57;6.47;;;15.90;99.90;;;;;;5022428;28;20180;-81
2021/08/23 10:20:33;;;;;;;7.88;5.55;;;16.00;99.90;;;;;;4995896;28;20040;-81
2021/08/23 10:23:01;;;;;;;9.50;5.78;;;16.00;99.90;;;;;;5025734;28;20463;-81
2021/08/23 10:25:27;;;;;;;7.70;5.68;;;16.00;99.90;;;;;;5027199;28;20025;-82
2021/08/23 10:28:10;;;;;;;9.57;6.40;;;16.10;99.90;;;;;;5011721;28;20124;-81
2021/08/23 10:30:37;;;;;;;9.02;6.40;;;16.10;99.90;;;;;;5020088;28;20053;-81
2021/08/23 10:33:14;;;;;;;9.13;6.43;;;16.10;99.90;;;;;;5015194;28;20046;-81
2021/08/23 10:35:52;;;;;;;7.28;5.72;;;16.00;99.90;;;;;;5023325;28;20036;-81
2021/08/23 10:38:20;;;;;;;6.78;5.15;;;16.00;99.90;;;;;;5023244;28;20057;-81
2021/08/23 10:40:48;;;;;;;12.30;5.88;;;15.90;99.90;;;;;;4991246;28;20037;-81
2021/08/23 10:43:17;;;;;;;7.07;5.07;;;15.90;99.90;;;;;;5017834;28;20034;-81
2021/08/23 10:45:43;;;;;;;9.32;5.10;;;15.90;99.90;;;;;;5021689;28;20034;-81
2021/08/23 10:48:21;;;;;;;6.90;5.30;;;15.80;99.90;;;;;;5008644;28;20093;-81
2021/08/23 10:50:59;;;;;;;6.00;5.03;;;15.80;99.90;;;;;;5010194;28;20606;-81
2021/08/23 10:53:33;;;;;;;7.03;4.90;;;15.80;99.90;;;;;;5007766;28;20125;-81
2021/08/23 10:56:11;;;;;;;7.25;5.75;;;15.80;99.90;;;;;;5018593;28;20087;-82
2021/08/23 10:58:37;;;;;;;9.48;6.28;;;15.90;99.90;;;;;;5017024;28;20029;-82
2021/08/23 11:01:02;;;;;;;11.88;6.28;;;15.90;99.90;;;;;;5022158;28;20037;-85
2021/08/23 11:03:29;;;;;;;7.97;5.82;;;15.90;99.90;;;;;;4973518;28;20057;-82
2021/08/23 11:06:04;;;;;;;7.30;5.60;;;15.90;99.90;;;;;;5006832;28;20033;-82
2021/08/23 11:08:30;;;;;;;6.90;5.68;;;15.90;99.90;;;;;;5018016;28;20488;-81
2021/08/23 11:11:11;;;;;;;17.23;5.95;;;16.00;99.90;;;;;;4999954;28;20111;-81
2021/08/23 11:13:43;;;;;;;7.95;6.20;;;16.10;99.90;;;;;;5016087;28;20029;-81
2021/08/23 11:16:09;;;;;;;8.68;5.00;;;16.10;99.90;;;;;;5002927;28;20125;-81
2021/08/23 11:18:44;;;;;;;7.82;5.47;;;16.20;99.90;;;;;;5026450;28;20037;-81
2021/08/23 11:21:17;;;;;;;10.63;5.63;;;16.30;99.90;;;;;;5008902;28;20033;-81
2021/08/23 11:23:45;;;;;;;6.53;4.68;;;16.30;99.90;;;;;;5007971;28;20549;-81
2021/08/23 11:26:21;;;;;;;7.40;5.57;;;16.40;99.90;;;;;;5004529;28;20030;-82
2021/08/23 11:28:47;;;;;;;11.90;4.88;;;16.40;99.90;;;;;;5014521;28;20033;-81
2021/08/23 11:31:19;;;;;;;7.93;4.43;;;16.50;99.90;;;;;;5001865;28;20037;-81
2021/08/23 11:33:45;;;;;;;6.15;4.65;;;16.60;99.90;;;;;;5008898;28;20176;-81
2021/08/23 11:36:20;;;;;;;5.97;4.18;;;16.60;99.90;;;;;;5018498;28;20121;-82
2021/08/23 11:38:46;;;;;;;6.13;4.47;;;16.70;99.90;;;;;;5019794;28;20400;-81
2021/08/23 11:41:12;;;;;;;8.13;4.68;;;16.70;99.90;;;;;;5017212;28;20529;-81
2021/08/23 11:43:38;;;;;;;7.20;4.22;;;16.70;99.90;;;;;;5022232;28;20036;-81
2021/08/23 11:46:05;;;;;;;8.23;5.18;;;16.70;99.90;;;;;;5005806;28;20451;-81
2021/08/23 11:48:31;;;;;;;5.35;4.10;;;16.80;99.90;;;;;;5011323;28;20025;-81
2021/08/23 11:50:57;;;;;;;5.65;4.68;;;17.00;99.90;;;;;;5000347;28;20427;-81
2021/08/23 11:53:24;;;;;;;6.38;4.53;;;17.10;99.90;;;;;;4998215;28;20034;-82
2021/08/23 11:55:51;;;;;;;5.82;4.55;;;17.20;99.90;;;;;;4985039;28;20029;-81
2021/08/23 11:58:21;;;;;;;5.47;4.13;;;17.30;99.90;;;;;;4992956;28;20087;-81
2021/08/23 12:01:08;;;;;;;7.35;4.20;;;17.50;99.90;;;;;;5028613;28;20041;-81
2021/08/23 12:03:37;;;;;;;3.78;3.33;;;17.50;99.90;;;;;;5045760;23;20171;-81
2021/08/23 12:06:07;;;;;;;4.53;3.65;;;17.60;99.90;;;;;;5043566;28;20104;-81
2021/08/23 12:08:36;;;;;;;4.05;3.45;;;17.60;99.90;;;;;;4999888;28;20480;-81
2021/08/23 12:11:08;;;;;;;3.47;3.17;;;17.60;99.90;;;;;;5024853;28;20100;-81
2021/08/23 12:13:45;;;;;;;4.45;3.42;;;17.60;99.90;;;;;;5002947;28;20073;-81
2021/08/23 12:16:16;;;;;;;6.35;3.50;;;17.60;99.90;;;;;;5028176;28;20445;-81
2021/08/23 12:18:47;;;;;;;3.80;3.28;;;17.60;99.90;;;;;;4980442;28;20506;-83
2021/08/23 12:21:28;;;;;;;3.63;3.20;;;17.50;99.90;;;;;;4992030;28;20044;-81
2021/08/23 12:23:55;;;;;;;3.53;2.67;;;17.50;99.90;;;;;;5009546;28;20163;-81
2021/08/23 12:26:45;;;;;;;4.75;3.25;;;17.50;99.90;;;;;;4993353;28;20034;-81
2021/08/23 12:29:11;;;;;;;3.58;2.92;;;17.50;99.90;;;;;;4963096;28;20049;-81
2021/08/23 12:31:39;;;;;;;2.92;2.58;;;17.50;99.90;;;;;;5012561;28;20018;-80
2021/08/23 12:34:16;;;;;;;3.05;2.75;;;17.50;99.90;;;;;;4980810;28;20041;-80
2021/08/23 12:36:43;;;;;;;3.45;2.97;;;17.60;99.90;;;;;;5014691;28;20042;-82
2021/08/23 12:39:10;;;;;;;3.00;2.70;;;17.60;99.90;;;;;;5016318;28;20081;-81
2021/08/23 12:41:39;;;;;;;3.10;2.55;;;17.70;99.90;;;;;;4998842;28;20033;-81
2021/08/23 12:44:05;;;;;;;5.97;2.70;;;17.70;99.90;;;;;;5004137;28;20034;-81
2021/08/23 12:46:30;;;;;;;3.10;2.80;;;17.80;99.90;;;;;;4993957;28;20369;-81